sensor_id;sensor_type;location;lat;lon;timestamp;P1;durP1;ratioP1;P2;durP2;ratioP2
9874;SDS011;4976;46.786;7.632;2022-07-10T04:01:59;4.03;;;2.53;;
9874;SDS011;4976;46.786;7.632;2022-07-10T04:04:26;4.30;;;2.60;;
9874;SDS011;4976;46.786;7.632;2022-07-10T04:06:53;2.90;;;2.60;;
9874;SDS011;4976;46.786;7.632;2022-07-10T04:09:20;2.70;;;2.50;;
9874;SDS011;4976;46.786;7.632;2022-07-10T04:11:47;2.40;;;2.20;;
9874;SDS011;4976;46.786;7.632;2022-07-10T04:14:14;3.10;;;2.53;;
9874;SDS011;4976;46.786;7.632;2022-07-10T04:16:41;2.63;;;2.43;;
9874;SDS011;4976;46.786;7.632;2022-07-10T04:19:09;2.90;;;2.30;;
9874;SDS011;4976;46.786;7.632;2022-07-10T04:21:36;3.10;;;2.50;;
9874;SDS011;4976;46.786;7.632;2022-07-10T04:24:03;3.77;;;2.40;;
9874;SDS011;4976;46.786;7.632;2022-07-10T04:26:30;3.43;;;2.33;;
9874;SDS011;4976;46.786;7.632;2022-07-10T04:28:57;2.50;;;2.30;;
9874;SDS011;4976;46.786;7.632;2022-07-10T04:31:24;3.23;;;2.10;;
9874;SDS011;4976;46.786;7.632;2022-07-10T04:33:51;6.33;;;2.70;;
9874;SDS011;4976;46.786;7.632;2022-07-10T04:36:19;2.73;;;2.53;;
9874;SDS011;4976;46.786;7.632;2022-07-10T04:38:46;3.73;;;2.70;;
9874;SDS011;4976;46.786;7.632;2022-07-10T04:41:13;2.70;;;2.50;;
9874;SDS011;4976;46.786;7.632;2022-07-10T04:43:40;2.47;;;2.27;;
9874;SDS011;4976;46.786;7.632;2022-07-10T04:46:07;2.87;;;2.40;;
9874;SDS011;4976;46.786;7.632;2022-07-10T04:48:34;3.40;;;2.53;;
9874;SDS011;4976;46.786;7.632;2022-07-10T04:51:00;4.53;;;2.30;;
9874;SDS011;4976;46.786;7.632;2022-07-10T04:53:29;4.87;;;2.60;;
9874;SDS011;4976;46.786;7.632;2022-07-10T04:55:56;3.03;;;2.73;;
9874;SDS011;4976;46.786;7.632;2022-07-10T04:58:23;2.77;;;2.40;;
9874;SDS011;4976;46.786;7.632;2022-07-10T05:00:50;3.50;;;2.90;;
9874;SDS011;4976;46.786;7.632;2022-07-10T05:03:17;2.70;;;2.47;;
9874;SDS011;4976;46.786;7.632;2022-07-10T05:05:44;3.27;;;2.60;;
9874;SDS011;4976;46.786;7.632;2022-07-10T05:08:11;3.43;;;2.67;;
9874;SDS011;4976;46.786;7.632;2022-07-10T05:10:39;2.53;;;2.33;;
9874;SDS011;4976;46.786;7.632;2022-07-10T05:13:06;2.80;;;2.50;;
9874;SDS011;4976;46.786;7.632;2022-07-10T05:15:33;3.33;;;2.70;;
9874;SDS011;4976;46.786;7.632;2022-07-10T05:18:00;3.70;;;2.50;;
9874;SDS011;4976;46.786;7.632;2022-07-10T05:20:27;3.87;;;3.00;;
9874;SDS011;4976;46.786;7.632;2022-07-10T05:22:54;2.90;;;2.50;;
9874;SDS011;4976;46.786;7.632;2022-07-10T05:25:21;2.80;;;2.60;;
9874;SDS011;4976;46.786;7.632;2022-07-10T05:27:52;3.43;;;3.10;;
9874;SDS011;4976;46.786;7.632;2022-07-10T05:30:19;3.43;;;2.87;;
9874;SDS011;4976;46.786;7.632;2022-07-10T05:32:46;3.17;;;2.70;;
9874;SDS011;4976;46.786;7.632;2022-07-10T05:35:13;3.60;;;2.70;;
9874;SDS011;4976;46.786;7.632;2022-07-10T05:37:41;2.80;;;2.60;;
9874;SDS011;4976;46.786;7.632;2022-07-10T05:40:08;4.63;;;2.50;;
9874;SDS011;4976;46.786;7.632;2022-07-10T05:42:36;3.43;;;2.70;;
9874;SDS011;4976;46.786;7.632;2022-07-10T05:45:05;3.20;;;2.50;;
9874;SDS011;4976;46.786;7.632;2022-07-10T05:47:32;2.83;;;2.63;;
9874;SDS011;4976;46.786;7.632;2022-07-10T05:49:59;3.50;;;2.63;;
9874;SDS011;4976;46.786;7.632;2022-07-10T05:52:26;3.07;;;2.37;;
9874;SDS011;4976;46.786;7.632;2022-07-10T05:54:55;3.70;;;2.50;;
9874;SDS011;4976;46.786;7.632;2022-07-10T05:57:21;2.93;;;2.60;;
9874;SDS011;4976;46.786;7.632;2022-07-10T05:59:48;3.80;;;2.60;;
9874;SDS011;4976;46.786;7.632;2022-07-10T06:02:17;3.47;;;2.70;;
9874;SDS011;4976;46.786;7.632;2022-07-10T06:04:44;3.00;;;2.40;;
9874;SDS011;4976;46.786;7.632;2022-07-10T06:07:11;2.67;;;2.20;;
9874;SDS011;4976;46.786;7.632;2022-07-10T06:09:38;2.30;;;2.10;;
9874;SDS011;4976;46.786;7.632;2022-07-10T06:12:05;3.67;;;2.30;;
9874;SDS011;4976;46.786;7.632;2022-07-10T06:14:33;3.23;;;2.50;;
9874;SDS011;4976;46.786;7.632;2022-07-10T06:16:59;2.10;;;2.00;;
9874;SDS011;4976;46.786;7.632;2022-07-10T06:19:28;2.53;;;2.13;;
9874;SDS011;4976;46.786;7.632;2022-07-10T06:21:55;2.73;;;2.50;;
9874;SDS011;4976;46.786;7.632;2022-07-10T06:24:35;2.37;;;2.17;;
9874;SDS011;4976;46.786;7.632;2022-07-10T06:27:03;1.90;;;1.80;;
9874;SDS011;4976;46.786;7.632;2022-07-10T06:29:30;2.47;;;2.20;;
9874;SDS011;4976;46.786;7.632;2022-07-10T06:31:58;2.23;;;2.03;;
9874;SDS011;4976;46.786;7.632;2022-07-10T06:34:24;3.30;;;2.30;;
9874;SDS011;4976;46.786;7.632;2022-07-10T06:36:53;2.40;;;2.20;;
9874;SDS011;4976;46.786;7.632;2022-07-10T06:39:20;3.97;;;2.30;;
9874;SDS011;4976;46.786;7.632;2022-07-10T06:41:47;2.53;;;2.33;;
9874;SDS011;4976;46.786;7.632;2022-07-10T06:44:14;2.23;;;2.13;;
9874;SDS011;4976;46.786;7.632;2022-07-10T06:46:41;3.13;;;2.37;;
9874;SDS011;4976;46.786;7.632;2022-07-10T06:49:28;3.27;;;2.43;;
9874;SDS011;4976;46.786;7.632;2022-07-10T06:51:56;2.53;;;2.33;;
9874;SDS011;4976;46.786;7.632;2022-07-10T06:54:23;2.87;;;2.30;;
9874;SDS011;4976;46.786;7.632;2022-07-10T06:56:50;3.90;;;2.40;;
9874;SDS011;4976;46.786;7.632;2022-07-10T06:59:17;2.60;;;2.40;;
9874;SDS011;4976;46.786;7.632;2022-07-10T07:01:44;2.40;;;2.10;;
9874;SDS011;4976;46.786;7.632;2022-07-10T07:04:11;3.00;;;2.20;;
9874;SDS011;4976;46.786;7.632;2022-07-10T07:06:42;2.17;;;1.90;;
9874;SDS011;4976;46.786;7.632;2022-07-10T07:09:10;2.40;;;2.20;;
9874;SDS011;4976;46.786;7.632;2022-07-10T07:11:37;2.43;;;2.23;;
9874;SDS011;4976;46.786;7.632;2022-07-10T07:14:04;2.97;;;2.03;;
9874;SDS011;4976;46.786;7.632;2022-07-10T07:16:31;2.33;;;2.13;;
9874;SDS011;4976;46.786;7.632;2022-07-10T07:19:04;2.40;;;2.20;;
9874;SDS011;4976;46.786;7.632;2022-07-10T07:21:31;2.50;;;2.30;;
9874;SDS011;4976;46.786;7.632;2022-07-10T07:24:17;2.40;;;2.20;;
9874;SDS011;4976;46.786;7.632;2022-07-10T07:26:44;2.30;;;2.10;;
9874;SDS011;4976;46.786;7.632;2022-07-10T07:29:25;2.40;;;2.20;;
9874;SDS011;4976;46.786;7.632;2022-07-10T07:31:52;2.67;;;2.33;;
9874;SDS011;4976;46.786;7.632;2022-07-10T07:34:20;2.33;;;2.13;;
9874;SDS011;4976;46.786;7.632;2022-07-10T07:36:47;2.50;;;2.30;;
9874;SDS011;4976;46.786;7.632;2022-07-10T07:39:14;2.75;;;2.30;;
9874;SDS011;4976;46.786;7.632;2022-07-10T07:41:42;4.35;;;2.13;;
9874;SDS011;4976;46.786;7.632;2022-07-10T07:44:09;2.10;;;2.00;;
9874;SDS011;4976;46.786;7.632;2022-07-10T07:46:37;2.38;;;2.17;;
9874;SDS011;4976;46.786;7.632;2022-07-10T07:49:04;3.95;;;2.35;;
9874;SDS011;4976;46.786;7.632;2022-07-10T07:51:32;2.42;;;2.20;;
9874;SDS011;4976;46.786;7.632;2022-07-10T07:53:59;2.63;;;2.30;;
9874;SDS011;4976;46.786;7.632;2022-07-10T07:56:26;2.33;;;2.13;;
9874;SDS011;4976;46.786;7.632;2022-07-10T07:58:54;2.08;;;1.98;;
9874;SDS011;4976;46.786;7.632;2022-07-10T08:01:21;2.67;;;2.30;;
9874;SDS011;4976;46.786;7.632;2022-07-10T08:03:48;3.80;;;2.08;;
9874;SDS011;4976;46.786;7.632;2022-07-10T08:06:15;2.42;;;2.22;;
9874;SDS011;4976;46.786;7.632;2022-07-10T08:08:42;2.45;;;2.03;;
9874;SDS011;4976;46.786;7.632;2022-07-10T08:11:09;2.78;;;1.98;;
9874;SDS011;4976;46.786;7.632;2022-07-10T08:13:36;2.17;;;2.00;;
9874;SDS011;4976;46.786;7.632;2022-07-10T08:16:05;2.40;;;2.20;;
9874;SDS011;4976;46.786;7.632;2022-07-10T08:18:32;2.50;;;2.30;;
9874;SDS011;4976;46.786;7.632;2022-07-10T08:20:59;2.35;;;2.25;;
9874;SDS011;4976;46.786;7.632;2022-07-10T08:23:26;2.90;;;2.40;;
9874;SDS011;4976;46.786;7.632;2022-07-10T08:25:53;2.85;;;2.30;;
9874;SDS011;4976;46.786;7.632;2022-07-10T08:28:21;2.28;;;2.10;;
9874;SDS011;4976;46.786;7.632;2022-07-10T08:30:48;2.45;;;2.20;;
9874;SDS011;4976;46.786;7.632;2022-07-10T08:33:16;2.83;;;2.17;;
9874;SDS011;4976;46.786;7.632;2022-07-10T08:35:43;5.63;;;2.35;;
9874;SDS011;4976;46.786;7.632;2022-07-10T08:38:11;2.65;;;2.45;;
9874;SDS011;4976;46.786;7.632;2022-07-10T08:40:38;3.58;;;2.40;;
9874;SDS011;4976;46.786;7.632;2022-07-10T08:43:05;3.20;;;2.40;;
9874;SDS011;4976;46.786;7.632;2022-07-10T08:45:33;2.58;;;2.25;;
9874;SDS011;4976;46.786;7.632;2022-07-10T08:48:01;4.00;;;2.30;;
9874;SDS011;4976;46.786;7.632;2022-07-10T08:50:33;3.10;;;2.42;;
9874;SDS011;4976;46.786;7.632;2022-07-10T08:53:06;2.47;;;2.38;;
9874;SDS011;4976;46.786;7.632;2022-07-10T08:55:35;2.50;;;2.30;;
9874;SDS011;4976;46.786;7.632;2022-07-10T08:58:03;2.88;;;2.63;;
9874;SDS011;4976;46.786;7.632;2022-07-10T09:00:30;4.32;;;2.70;;
9874;SDS011;4976;46.786;7.632;2022-07-10T09:02:57;3.58;;;3.05;;
9874;SDS011;4976;46.786;7.632;2022-07-10T09:05:24;2.65;;;2.45;;
9874;SDS011;4976;46.786;7.632;2022-07-10T09:07:53;3.00;;;2.80;;
9874;SDS011;4976;46.786;7.632;2022-07-10T09:10:21;3.03;;;2.45;;
9874;SDS011;4976;46.786;7.632;2022-07-10T09:12:51;3.13;;;2.72;;
9874;SDS011;4976;46.786;7.632;2022-07-10T09:15:20;3.00;;;2.67;;
9874;SDS011;4976;46.786;7.632;2022-07-10T09:17:49;2.92;;;2.72;;
9874;SDS011;4976;46.786;7.632;2022-07-10T09:20:26;3.40;;;2.60;;
9874;SDS011;4976;46.786;7.632;2022-07-10T09:22:59;3.60;;;2.50;;
9874;SDS011;4976;46.786;7.632;2022-07-10T09:25:40;3.30;;;2.60;;
9874;SDS011;4976;46.786;7.632;2022-07-10T09:28:07;3.63;;;2.75;;
9874;SDS011;4976;46.786;7.632;2022-07-10T09:30:35;2.95;;;2.45;;
9874;SDS011;4976;46.786;7.632;2022-07-10T09:33:19;2.90;;;2.70;;
9874;SDS011;4976;46.786;7.632;2022-07-10T09:36:03;2.72;;;2.40;;
9874;SDS011;4976;46.786;7.632;2022-07-10T09:38:52;3.58;;;2.47;;
9874;SDS011;4976;46.786;7.632;2022-07-10T09:41:24;2.70;;;2.50;;
9874;SDS011;4976;46.786;7.632;2022-07-10T09:43:52;4.47;;;2.28;;
9874;SDS011;4976;46.786;7.632;2022-07-10T09:46:21;2.53;;;2.33;;
9874;SDS011;4976;46.786;7.632;2022-07-10T09:49:00;2.88;;;2.45;;
9874;SDS011;4976;46.786;7.632;2022-07-10T09:51:32;2.30;;;2.20;;
9874;SDS011;4976;46.786;7.632;2022-07-10T09:54:02;5.13;;;2.40;;
9874;SDS011;4976;46.786;7.632;2022-07-10T09:56:32;2.40;;;2.20;;
9874;SDS011;4976;46.786;7.632;2022-07-10T09:59:06;4.47;;;2.70;;
9874;SDS011;4976;46.786;7.632;2022-07-10T10:01:35;2.42;;;2.22;;
9874;SDS011;4976;46.786;7.632;2022-07-10T10:04:04;2.47;;;2.20;;
9874;SDS011;4976;46.786;7.632;2022-07-10T10:06:32;2.58;;;2.30;;
9874;SDS011;4976;46.786;7.632;2022-07-10T10:09:04;2.33;;;2.13;;
9874;SDS011;4976;46.786;7.632;2022-07-10T10:11:36;4.47;;;2.33;;
9874;SDS011;4976;46.786;7.632;2022-07-10T10:14:04;2.30;;;2.10;;
9874;SDS011;4976;46.786;7.632;2022-07-10T10:16:34;2.50;;;2.00;;
9874;SDS011;4976;46.786;7.632;2022-07-10T10:19:02;2.25;;;2.05;;
9874;SDS011;4976;46.786;7.632;2022-07-10T10:21:46;3.25;;;2.30;;
9874;SDS011;4976;46.786;7.632;2022-07-10T10:24:15;2.40;;;2.20;;
9874;SDS011;4976;46.786;7.632;2022-07-10T10:26:42;2.55;;;2.10;;
9874;SDS011;4976;46.786;7.632;2022-07-10T10:29:10;2.28;;;2.08;;
9874;SDS011;4976;46.786;7.632;2022-07-10T10:31:38;2.45;;;1.85;;
9874;SDS011;4976;46.786;7.632;2022-07-10T10:34:06;2.58;;;2.10;;
9874;SDS011;4976;46.786;7.632;2022-07-10T10:36:48;2.30;;;2.10;;
9874;SDS011;4976;46.786;7.632;2022-07-10T10:39:17;3.22;;;2.10;;
9874;SDS011;4976;46.786;7.632;2022-07-10T10:41:46;2.33;;;2.13;;
9874;SDS011;4976;46.786;7.632;2022-07-10T10:44:28;2.03;;;1.83;;
9874;SDS011;4976;46.786;7.632;2022-07-10T10:47:01;2.58;;;2.10;;
9874;SDS011;4976;46.786;7.632;2022-07-10T10:52:31;2.10;;;1.92;;
9874;SDS011;4976;46.786;7.632;2022-07-10T10:55:00;2.33;;;2.13;;
9874;SDS011;4976;46.786;7.632;2022-07-10T10:57:39;2.42;;;2.22;;
9874;SDS011;4976;46.786;7.632;2022-07-10T11:00:13;2.25;;;2.05;;
9874;SDS011;4976;46.786;7.632;2022-07-10T11:03:15;2.30;;;2.10;;
9874;SDS011;4976;46.786;7.632;2022-07-10T11:05:44;2.42;;;2.22;;
9874;SDS011;4976;46.786;7.632;2022-07-10T11:08:12;2.08;;;1.98;;
9874;SDS011;4976;46.786;7.632;2022-07-10T11:10:41;2.55;;;2.33;;
9874;SDS011;4976;46.786;7.632;2022-07-10T11:13:10;2.47;;;2.30;;
9874;SDS011;4976;46.786;7.632;2022-07-10T11:15:39;3.05;;;2.40;;
9874;SDS011;4976;46.786;7.632;2022-07-10T11:18:07;2.40;;;2.20;;
9874;SDS011;4976;46.786;7.632;2022-07-10T11:20:37;3.05;;;2.38;;
9874;SDS011;4976;46.786;7.632;2022-07-10T11:23:08;2.67;;;2.13;;
9874;SDS011;4976;46.786;7.632;2022-07-10T11:25:59;2.70;;;2.00;;
9874;SDS011;4976;46.786;7.632;2022-07-10T11:28:41;2.75;;;2.30;;
9874;SDS011;4976;46.786;7.632;2022-07-10T11:31:14;2.42;;;2.22;;
9874;SDS011;4976;46.786;7.632;2022-07-10T11:33:42;2.33;;;2.10;;
9874;SDS011;4976;46.786;7.632;2022-07-10T11:36:11;2.15;;;2.03;;
9874;SDS011;4976;46.786;7.632;2022-07-10T11:38:41;2.08;;;1.98;;
9874;SDS011;4976;46.786;7.632;2022-07-10T11:41:13;2.35;;;2.15;;
9874;SDS011;4976;46.786;7.632;2022-07-10T11:43:51;2.40;;;2.20;;
9874;SDS011;4976;46.786;7.632;2022-07-10T11:46:20;2.15;;;2.05;;
9874;SDS011;4976;46.786;7.632;2022-07-10T11:51:22;2.60;;;2.40;;
9874;SDS011;4976;46.786;7.632;2022-07-10T11:53:54;2.35;;;2.25;;
9874;SDS011;4976;46.786;7.632;2022-07-10T11:56:24;4.15;;;2.40;;
9874;SDS011;4976;46.786;7.632;2022-07-10T11:58:55;2.78;;;2.45;;
9874;SDS011;4976;46.786;7.632;2022-07-10T12:01:23;2.63;;;2.40;;
9874;SDS011;4976;46.786;7.632;2022-07-10T12:03:54;2.30;;;2.10;;
9874;SDS011;4976;46.786;7.632;2022-07-10T12:06:22;2.53;;;2.30;;
9874;SDS011;4976;46.786;7.632;2022-07-10T12:08:50;2.70;;;2.50;;
9874;SDS011;4976;46.786;7.632;2022-07-10T12:11:17;2.47;;;2.25;;
9874;SDS011;4976;46.786;7.632;2022-07-10T12:13:47;3.13;;;2.33;;
9874;SDS011;4976;46.786;7.632;2022-07-10T12:16:15;2.83;;;2.22;;
9874;SDS011;4976;46.786;7.632;2022-07-10T12:18:43;2.70;;;2.30;;
9874;SDS011;4976;46.786;7.632;2022-07-10T12:21:12;2.28;;;2.13;;
9874;SDS011;4976;46.786;7.632;2022-07-10T12:23:41;2.60;;;2.40;;
9874;SDS011;4976;46.786;7.632;2022-07-10T12:26:11;2.33;;;2.13;;
9874;SDS011;4976;46.786;7.632;2022-07-10T12:28:53;2.50;;;2.30;;
9874;SDS011;4976;46.786;7.632;2022-07-10T12:31:24;2.50;;;2.30;;
9874;SDS011;4976;46.786;7.632;2022-07-10T12:33:53;2.47;;;2.20;;
9874;SDS011;4976;46.786;7.632;2022-07-10T12:36:23;3.58;;;2.40;;
9874;SDS011;4976;46.786;7.632;2022-07-10T12:38:57;2.50;;;2.30;;
9874;SDS011;4976;46.786;7.632;2022-07-10T12:41:24;2.47;;;2.25;;
9874;SDS011;4976;46.786;7.632;2022-07-10T12:43:53;3.00;;;2.28;;
9874;SDS011;4976;46.786;7.632;2022-07-10T12:46:20;2.10;;;1.92;;
9874;SDS011;4976;46.786;7.632;2022-07-10T12:49:01;2.03;;;1.90;;
9874;SDS011;4976;46.786;7.632;2022-07-10T12:51:30;2.60;;;2.33;;
9874;SDS011;4976;46.786;7.632;2022-07-10T12:53:58;2.45;;;2.10;;
9874;SDS011;4976;46.786;7.632;2022-07-10T12:56:26;2.85;;;2.10;;
9874;SDS011;4976;46.786;7.632;2022-07-10T12:58:59;2.22;;;2.05;;
9874;SDS011;4976;46.786;7.632;2022-07-10T13:01:27;2.45;;;2.10;;
9874;SDS011;4976;46.786;7.632;2022-07-10T13:03:58;2.58;;;2.13;;
9874;SDS011;4976;46.786;7.632;2022-07-10T13:06:26;2.08;;;1.98;;
9874;SDS011;4976;46.786;7.632;2022-07-10T13:08:54;2.95;;;2.22;;
9874;SDS011;4976;46.786;7.632;2022-07-10T13:11:21;2.50;;;2.30;;
9874;SDS011;4976;46.786;7.632;2022-07-10T13:13:48;2.50;;;2.30;;
9874;SDS011;4976;46.786;7.632;2022-07-10T13:16:16;2.70;;;2.50;;
9874;SDS011;4976;46.786;7.632;2022-07-10T13:18:43;2.60;;;2.40;;
9874;SDS011;4976;46.786;7.632;2022-07-10T13:21:11;2.83;;;2.30;;
9874;SDS011;4976;46.786;7.632;2022-07-10T13:23:38;2.30;;;2.10;;
9874;SDS011;4976;46.786;7.632;2022-07-10T13:26:06;3.30;;;2.15;;
9874;SDS011;4976;46.786;7.632;2022-07-10T13:28:34;2.50;;;2.30;;
9874;SDS011;4976;46.786;7.632;2022-07-10T13:31:01;2.50;;;2.33;;
9874;SDS011;4976;46.786;7.632;2022-07-10T13:33:30;2.72;;;2.53;;
9874;SDS011;4976;46.786;7.632;2022-07-10T13:35:59;2.58;;;2.38;;
9874;SDS011;4976;46.786;7.632;2022-07-10T13:38:27;2.80;;;2.28;;
9874;SDS011;4976;46.786;7.632;2022-07-10T13:40:54;2.95;;;2.05;;
9874;SDS011;4976;46.786;7.632;2022-07-10T13:43:21;2.30;;;2.20;;
9874;SDS011;4976;46.786;7.632;2022-07-10T13:45:53;2.80;;;2.60;;
9874;SDS011;4976;46.786;7.632;2022-07-10T13:48:22;2.47;;;2.28;;
9874;SDS011;4976;46.786;7.632;2022-07-10T13:50:51;2.22;;;2.13;;
9874;SDS011;4976;46.786;7.632;2022-07-10T13:53:19;2.35;;;2.15;;
9874;SDS011;4976;46.786;7.632;2022-07-10T13:55:46;2.60;;;2.20;;
9874;SDS011;4976;46.786;7.632;2022-07-10T13:58:14;2.53;;;2.33;;
9874;SDS011;4976;46.786;7.632;2022-07-10T14:00:41;2.67;;;2.40;;
9874;SDS011;4976;46.786;7.632;2022-07-10T14:03:08;2.80;;;2.60;;
9874;SDS011;4976;46.786;7.632;2022-07-10T14:05:35;2.40;;;2.20;;
9874;SDS011;4976;46.786;7.632;2022-07-10T14:08:04;3.25;;;2.40;;
9874;SDS011;4976;46.786;7.632;2022-07-10T14:10:31;2.72;;;2.53;;
9874;SDS011;4976;46.786;7.632;2022-07-10T14:12:58;2.60;;;2.40;;
9874;SDS011;4976;46.786;7.632;2022-07-10T14:15:25;2.60;;;2.20;;
9874;SDS011;4976;46.786;7.632;2022-07-10T14:17:52;3.55;;;2.70;;
9874;SDS011;4976;46.786;7.632;2022-07-10T14:20:20;2.55;;;2.15;;
9874;SDS011;4976;46.786;7.632;2022-07-10T14:22:47;2.53;;;2.22;;
9874;SDS011;4976;46.786;7.632;2022-07-10T14:25:16;2.03;;;1.88;;
9874;SDS011;4976;46.786;7.632;2022-07-10T14:27:45;2.60;;;2.45;;
9874;SDS011;4976;46.786;7.632;2022-07-10T14:30:12;3.65;;;2.17;;
9874;SDS011;4976;46.786;7.632;2022-07-10T14:32:39;3.22;;;2.45;;
9874;SDS011;4976;46.786;7.632;2022-07-10T14:35:06;2.25;;;2.15;;
9874;SDS011;4976;46.786;7.632;2022-07-10T14:37:34;2.53;;;2.33;;
9874;SDS011;4976;46.786;7.632;2022-07-10T14:40:01;2.30;;;2.15;;
9874;SDS011;4976;46.786;7.632;2022-07-10T14:42:30;2.45;;;2.33;;
9874;SDS011;4976;46.786;7.632;2022-07-10T14:44:57;2.55;;;2.40;;
9874;SDS011;4976;46.786;7.632;2022-07-10T14:47:24;2.70;;;2.50;;
9874;SDS011;4976;46.786;7.632;2022-07-10T14:49:54;5.55;;;4.38;;
9874;SDS011;4976;46.786;7.632;2022-07-10T14:52:21;2.78;;;2.58;;
9874;SDS011;4976;46.786;7.632;2022-07-10T14:54:50;3.03;;;2.83;;
9874;SDS011;4976;46.786;7.632;2022-07-10T14:57:17;2.72;;;2.53;;
9874;SDS011;4976;46.786;7.632;2022-07-10T14:59:45;2.50;;;2.30;;
9874;SDS011;4976;46.786;7.632;2022-07-10T15:02:12;2.85;;;2.38;;
9874;SDS011;4976;46.786;7.632;2022-07-10T15:04:39;2.83;;;2.20;;
9874;SDS011;4976;46.786;7.632;2022-07-10T15:07:06;2.95;;;2.70;;
9874;SDS011;4976;46.786;7.632;2022-07-10T15:09:33;3.92;;;2.40;;
9874;SDS011;4976;46.786;7.632;2022-07-10T15:12:00;2.58;;;2.38;;
9874;SDS011;4976;46.786;7.632;2022-07-10T15:14:27;2.40;;;2.30;;
9874;SDS011;4976;46.786;7.632;2022-07-10T15:16:55;4.18;;;2.60;;
9874;SDS011;4976;46.786;7.632;2022-07-10T15:19:34;2.55;;;2.35;;
9874;SDS011;4976;46.786;7.632;2022-07-10T15:22:01;2.53;;;2.33;;
9874;SDS011;4976;46.786;7.632;2022-07-10T15:24:28;2.78;;;2.58;;
9874;SDS011;4976;46.786;7.632;2022-07-10T15:26:56;2.80;;;2.60;;
9874;SDS011;4976;46.786;7.632;2022-07-10T15:29:23;2.80;;;2.60;;
9874;SDS011;4976;46.786;7.632;2022-07-10T15:31:50;3.08;;;2.33;;
9874;SDS011;4976;46.786;7.632;2022-07-10T15:34:19;2.47;;;2.28;;
9874;SDS011;4976;46.786;7.632;2022-07-10T15:36:46;3.17;;;2.40;;
9874;SDS011;4976;46.786;7.632;2022-07-10T15:39:14;2.72;;;2.53;;
9874;SDS011;4976;46.786;7.632;2022-07-10T15:41:41;2.97;;;2.78;;
9874;SDS011;4976;46.786;7.632;2022-07-10T15:44:11;2.60;;;2.40;;
9874;SDS011;4976;46.786;7.632;2022-07-10T15:46:38;3.00;;;2.58;;
9874;SDS011;4976;46.786;7.632;2022-07-10T15:49:06;2.53;;;2.30;;
9874;SDS011;4976;46.786;7.632;2022-07-10T15:51:36;2.67;;;2.30;;
9874;SDS011;4976;46.786;7.632;2022-07-10T15:54:03;2.67;;;2.47;;
9874;SDS011;4976;46.786;7.632;2022-07-10T15:56:30;3.10;;;2.40;;
9874;SDS011;4976;46.786;7.632;2022-07-10T15:58:57;2.50;;;2.30;;
9874;SDS011;4976;46.786;7.632;2022-07-10T16:01:24;2.60;;;2.40;;
9874;SDS011;4976;46.786;7.632;2022-07-10T16:03:51;5.28;;;2.58;;
9874;SDS011;4976;46.786;7.632;2022-07-10T16:06:18;2.60;;;2.40;;
9874;SDS011;4976;46.786;7.632;2022-07-10T16:08:47;2.60;;;2.40;;
9874;SDS011;4976;46.786;7.632;2022-07-10T16:11:14;3.15;;;2.95;;
9874;SDS011;4976;46.786;7.632;2022-07-10T16:13:42;2.70;;;2.50;;
9874;SDS011;4976;46.786;7.632;2022-07-10T16:16:10;2.70;;;2.50;;
9874;SDS011;4976;46.786;7.632;2022-07-10T16:18:36;2.70;;;2.50;;
9874;SDS011;4976;46.786;7.632;2022-07-10T16:21:04;2.60;;;2.40;;
9874;SDS011;4976;46.786;7.632;2022-07-10T16:23:31;2.70;;;2.50;;
9874;SDS011;4976;46.786;7.632;2022-07-10T16:25:59;2.55;;;2.30;;
9874;SDS011;4976;46.786;7.632;2022-07-10T16:28:26;2.70;;;2.38;;
9874;SDS011;4976;46.786;7.632;2022-07-10T16:30:54;3.00;;;2.70;;
9874;SDS011;4976;46.786;7.632;2022-07-10T16:33:21;2.80;;;2.55;;
9874;SDS011;4976;46.786;7.632;2022-07-10T16:35:48;2.58;;;2.40;;
9874;SDS011;4976;46.786;7.632;2022-07-10T16:38:15;2.42;;;2.20;;
9874;SDS011;4976;46.786;7.632;2022-07-10T16:40:43;2.67;;;2.47;;
9874;SDS011;4976;46.786;7.632;2022-07-10T16:43:12;2.55;;;2.35;;
9874;SDS011;4976;46.786;7.632;2022-07-10T16:45:40;2.50;;;2.30;;
9874;SDS011;4976;46.786;7.632;2022-07-10T16:48:08;3.53;;;2.50;;
9874;SDS011;4976;46.786;7.632;2022-07-10T16:50:36;2.45;;;2.25;;
9874;SDS011;4976;46.786;7.632;2022-07-10T16:53:03;2.40;;;2.20;;
9874;SDS011;4976;46.786;7.632;2022-07-10T16:55:31;2.40;;;2.20;;
9874;SDS011;4976;46.786;7.632;2022-07-10T16:57:58;2.22;;;2.10;;
9874;SDS011;4976;46.786;7.632;2022-07-10T17:00:26;2.40;;;2.20;;
9874;SDS011;4976;46.786;7.632;2022-07-10T17:02:53;2.20;;;2.00;;
9874;SDS011;4976;46.786;7.632;2022-07-10T17:05:20;5.53;;;2.03;;
9874;SDS011;4976;46.786;7.632;2022-07-10T17:07:47;3.35;;;2.08;;
9874;SDS011;4976;46.786;7.632;2022-07-10T17:10:15;2.03;;;1.92;;
9874;SDS011;4976;46.786;7.632;2022-07-10T17:12:42;2.58;;;2.03;;
9874;SDS011;4976;46.786;7.632;2022-07-10T17:15:09;2.38;;;1.92;;
9874;SDS011;4976;46.786;7.632;2022-07-10T17:17:39;3.20;;;2.35;;
9874;SDS011;4976;46.786;7.632;2022-07-10T17:20:07;2.30;;;2.10;;
9874;SDS011;4976;46.786;7.632;2022-07-10T17:22:35;2.03;;;1.92;;
9874;SDS011;4976;46.786;7.632;2022-07-10T17:25:04;3.25;;;1.85;;
9874;SDS011;4976;46.786;7.632;2022-07-10T17:27:32;2.10;;;1.90;;
9874;SDS011;4976;46.786;7.632;2022-07-10T17:29:59;1.75;;;1.65;;
9874;SDS011;4976;46.786;7.632;2022-07-10T17:32:42;2.15;;;1.70;;
9874;SDS011;4976;46.786;7.632;2022-07-10T17:35:10;1.90;;;1.80;;
9874;SDS011;4976;46.786;7.632;2022-07-10T17:37:37;3.55;;;2.63;;
9874;SDS011;4976;46.786;7.632;2022-07-10T17:40:05;2.80;;;1.95;;
9874;SDS011;4976;46.786;7.632;2022-07-10T17:42:40;2.05;;;1.80;;
9874;SDS011;4976;46.786;7.632;2022-07-10T17:45:08;2.10;;;2.00;;
9874;SDS011;4976;46.786;7.632;2022-07-10T17:47:36;1.88;;;1.77;;
9874;SDS011;4976;46.786;7.632;2022-07-10T17:50:05;2.00;;;1.90;;
9874;SDS011;4976;46.786;7.632;2022-07-10T17:52:33;1.98;;;1.88;;
9874;SDS011;4976;46.786;7.632;2022-07-10T17:55:00;1.90;;;1.80;;
9874;SDS011;4976;46.786;7.632;2022-07-10T17:57:27;1.85;;;1.75;;
9874;SDS011;4976;46.786;7.632;2022-07-10T18:02:26;1.88;;;1.60;;
9874;SDS011;4976;46.786;7.632;2022-07-10T18:04:53;1.70;;;1.60;;
9874;SDS011;4976;46.786;7.632;2022-07-10T18:07:21;2.05;;;1.90;;
9874;SDS011;4976;46.786;7.632;2022-07-10T18:09:48;1.75;;;1.65;;
9874;SDS011;4976;46.786;7.632;2022-07-10T18:12:15;1.63;;;1.52;;
9874;SDS011;4976;46.786;7.632;2022-07-10T18:14:42;1.95;;;1.70;;
9874;SDS011;4976;46.786;7.632;2022-07-10T18:17:09;1.88;;;1.77;;
9874;SDS011;4976;46.786;7.632;2022-07-10T18:19:36;1.92;;;1.80;;
9874;SDS011;4976;46.786;7.632;2022-07-10T18:22:03;1.70;;;1.60;;
9874;SDS011;4976;46.786;7.632;2022-07-10T18:24:31;1.95;;;1.58;;
9874;SDS011;4976;46.786;7.632;2022-07-10T18:26:58;1.83;;;1.58;;
9874;SDS011;4976;46.786;7.632;2022-07-10T18:29:27;1.50;;;1.40;;
9874;SDS011;4976;46.786;7.632;2022-07-10T18:31:56;2.20;;;1.80;;
9874;SDS011;4976;46.786;7.632;2022-07-10T18:34:23;1.77;;;1.52;;
9874;SDS011;4976;46.786;7.632;2022-07-10T18:36:56;1.40;;;1.30;;
9874;SDS011;4976;46.786;7.632;2022-07-10T18:39:24;1.60;;;1.50;;
9874;SDS011;4976;46.786;7.632;2022-07-10T18:41:53;1.35;;;1.25;;
9874;SDS011;4976;46.786;7.632;2022-07-10T18:44:19;2.53;;;1.50;;
9874;SDS011;4976;46.786;7.632;2022-07-10T18:46:47;1.55;;;1.45;;
9874;SDS011;4976;46.786;7.632;2022-07-10T18:49:14;1.50;;;1.40;;
9874;SDS011;4976;46.786;7.632;2022-07-10T18:51:41;1.60;;;1.50;;
9874;SDS011;4976;46.786;7.632;2022-07-10T18:54:08;2.33;;;1.50;;
9874;SDS011;4976;46.786;7.632;2022-07-10T18:56:35;1.45;;;1.35;;
9874;SDS011;4976;46.786;7.632;2022-07-10T18:59:04;2.33;;;1.60;;
9874;SDS011;4976;46.786;7.632;2022-07-10T19:01:31;2.13;;;1.38;;
9874;SDS011;4976;46.786;7.632;2022-07-10T19:03:58;2.25;;;1.50;;
9874;SDS011;4976;46.786;7.632;2022-07-10T19:06:26;1.70;;;1.60;;
9874;SDS011;4976;46.786;7.632;2022-07-10T19:08:53;3.42;;;1.58;;
9874;SDS011;4976;46.786;7.632;2022-07-10T19:11:20;1.83;;;1.70;;
9874;SDS011;4976;46.786;7.632;2022-07-10T19:13:47;1.60;;;1.50;;
9874;SDS011;4976;46.786;7.632;2022-07-10T19:16:18;1.48;;;1.38;;
9874;SDS011;4976;46.786;7.632;2022-07-10T19:18:46;1.73;;;1.50;;
9874;SDS011;4976;46.786;7.632;2022-07-10T19:21:13;1.40;;;1.30;;
9874;SDS011;4976;46.786;7.632;2022-07-10T19:23:41;1.50;;;1.40;;
9874;SDS011;4976;46.786;7.632;2022-07-10T19:26:08;1.50;;;1.35;;
9874;SDS011;4976;46.786;7.632;2022-07-10T19:28:35;1.75;;;1.58;;
9874;SDS011;4976;46.786;7.632;2022-07-10T19:31:02;2.03;;;1.70;;
9874;SDS011;4976;46.786;7.632;2022-07-10T19:33:31;2.60;;;1.70;;